Time;durP1;ratioP1;P1;durP2;ratioP2;P2;SDS_P1;SDS_P2;PMS_P1;PMS_P2;Temp;Humidity;BMP_temperature;BMP_pressure;BME280_temperature;BME280_humidity;BME280_pressure;Samples;Min_cycle;Max_cycle;Signal;HPM_P1;HPM_P2
2021/03/05 00:02:04;;;;;;;25.80;17.80;;;7.10;99.90;;;;;;5022524;28;20197;-73
2021/03/05 00:04:30;;;;;;;24.53;17.00;;;6.90;99.90;;;;;;5022798;28;20204;-73
2021/03/05 00:06:55;;;;;;;21.17;15.83;;;6.90;99.90;;;;;;5019333;28;20546;-73
2021/03/05 00:09:20;;;;;;;22.40;15.67;;;6.80;99.90;;;;;;5022015;28;20187;-73
2021/03/05 00:11:46;;;;;;;20.27;15.20;;;6.70;99.90;;;;;;5020512;28;20190;-73
2021/03/05 00:14:12;;;;;;;19.00;13.67;;;6.60;99.90;;;;;;5020392;28;20625;-73
2021/03/05 00:16:37;;;;;;;22.27;14.40;;;6.50;99.90;;;;;;5022132;28;20184;-76
2021/03/05 00:19:03;;;;;;;19.10;14.33;;;6.40;99.90;;;;;;5019127;28;20269;-74
2021/03/05 00:21:28;;;;;;;24.47;15.27;;;6.20;99.90;;;;;;5021791;28;20649;-73
2021/03/05 00:23:54;;;;;;;24.93;17.20;;;6.10;99.90;;;;;;5014068;28;20216;-75
2021/03/05 00:26:19;;;;;;;26.70;17.47;;;6.10;99.90;;;;;;5019264;28;20175;-73
2021/03/05 00:28:45;;;;;;;26.40;17.83;;;6.00;99.90;;;;;;5022161;28;20189;-73
2021/03/05 00:31:11;;;;;;;37.20;22.07;;;6.00;99.90;;;;;;5020236;28;20248;-73
2021/03/05 00:33:36;;;;;;;34.53;21.13;;;5.90;99.90;;;;;;5021113;28;20323;-73
2021/03/05 00:36:02;;;;;;;32.97;20.73;;;5.90;99.90;;;;;;5019760;28;20519;-73
2021/03/05 00:38:28;;;;;;;35.13;22.60;;;5.80;99.90;;;;;;5018960;28;20213;-73
2021/03/05 00:40:53;;;;;;;36.40;22.20;;;5.80;99.90;;;;;;5019725;28;20191;-73
2021/03/05 00:43:20;;;;;;;36.60;21.57;;;5.70;99.90;;;;;;5018655;28;20676;-74
2021/03/05 00:45:46;;;;;;;39.17;21.67;;;5.60;99.90;;;;;;5017249;28;20206;-74
2021/03/05 00:48:11;;;;;;;34.23;21.63;;;5.60;99.90;;;;;;5021513;28;20435;-73
2021/03/05 00:50:37;;;;;;;34.70;22.90;;;5.60;99.90;;;;;;5019630;28;20196;-73
2021/03/05 00:53:03;;;;;;;35.93;21.80;;;5.50;99.90;;;;;;5017706;28;20274;-73
2021/03/05 00:55:28;;;;;;;36.67;22.50;;;5.40;99.90;;;;;;5022911;28;20293;-76
2021/03/05 00:57:54;;;;;;;36.93;23.07;;;5.50;99.90;;;;;;5021479;28;20201;-73
2021/03/05 01:00:20;;;;;;;38.10;22.40;;;5.50;99.90;;;;;;5019579;28;20172;-73
2021/03/05 01:02:47;;;;;;;39.00;22.70;;;5.40;99.90;;;;;;5017588;28;20208;-73
2021/03/05 01:05:13;;;;;;;43.23;22.20;;;5.30;99.90;;;;;;5020274;28;20891;-75
2021/03/05 01:07:38;;;;;;;36.93;21.43;;;5.30;99.90;;;;;;5021053;28;20443;-75
2021/03/05 01:10:06;;;;;;;42.10;23.47;;;5.20;99.90;;;;;;5019112;28;20916;-73
2021/03/05 01:12:32;;;;;;;50.20;23.10;;;5.20;99.90;;;;;;5024216;28;20182;-72
2021/03/05 01:14:58;;;;;;;44.27;24.37;;;5.10;99.90;;;;;;5022137;28;20455;-73
2021/03/05 01:17:23;;;;;;;39.90;24.23;;;4.90;99.90;;;;;;5023593;28;20200;-73
2021/03/05 01:19:49;;;;;;;41.00;25.80;;;4.90;99.90;;;;;;5023356;28;20494;-73
2021/03/05 01:22:14;;;;;;;50.67;26.30;;;4.80;99.90;;;;;;5023778;28;20190;-72
2021/03/05 01:24:40;;;;;;;40.07;23.20;;;4.80;99.90;;;;;;5024621;28;20247;-73
2021/03/05 01:27:06;;;;;;;39.03;22.60;;;4.80;99.90;;;;;;5022632;28;20186;-74
2021/03/05 01:29:32;;;;;;;45.37;25.33;;;4.80;99.90;;;;;;5025874;28;20483;-73
2021/03/05 01:31:57;;;;;;;36.77;21.27;;;4.70;99.90;;;;;;5025431;28;20582;-73
2021/03/05 01:34:23;;;;;;;43.90;22.60;;;4.70;99.90;;;;;;5022888;28;20695;-73
2021/03/05 01:36:48;;;;;;;43.60;23.83;;;4.60;99.90;;;;;;5024236;28;20189;-73
2021/03/05 01:39:14;;;;;;;46.30;24.57;;;4.60;99.90;;;;;;5023595;28;20207;-73
2021/03/05 01:41:39;;;;;;;42.80;23.83;;;4.50;99.90;;;;;;5021617;28;20556;-73
2021/03/05 01:44:07;;;;;;;42.07;22.60;;;4.50;99.90;;;;;;5024716;28;20670;-73
2021/03/05 01:46:33;;;;;;;47.67;26.13;;;4.50;99.90;;;;;;5021864;28;20186;-73
2021/03/05 01:48:59;;;;;;;45.30;23.83;;;4.50;99.90;;;;;;5025255;28;20397;-75
2021/03/05 01:51:28;;;;;;;49.97;25.00;;;4.50;99.90;;;;;;5022648;28;20437;-72
2021/03/05 01:53:55;;;;;;;43.47;21.40;;;4.50;99.90;;;;;;5024227;28;20208;-72
2021/03/05 01:56:43;;;;;;;43.10;23.10;;;4.50;99.90;;;;;;5021134;28;20463;-72
2021/03/05 01:59:11;;;;;;;46.57;25.60;;;4.50;99.90;;;;;;5019683;28;20464;-72
2021/03/05 02:01:39;;;;;;;40.50;22.63;;;4.40;99.90;;;;;;5024511;28;20426;-73
2021/03/05 02:04:09;;;;;;;49.97;23.83;;;4.40;99.90;;;;;;5021352;28;20443;-73
2021/03/05 02:06:35;;;;;;;52.97;25.50;;;4.40;99.90;;;;;;5025007;28;21062;-74
2021/03/05 02:09:01;;;;;;;47.70;24.23;;;4.40;99.90;;;;;;5021177;28;20434;-72
2021/03/05 02:11:27;;;;;;;51.47;23.50;;;4.40;99.90;;;;;;5021677;28;20423;-74
2021/03/05 02:13:55;;;;;;;49.03;25.57;;;4.40;99.90;;;;;;5023428;28;20205;-75
2021/03/05 02:16:48;;;;;;;49.03;24.30;;;4.30;99.90;;;;;;5022508;28;20230;-75
2021/03/05 02:19:50;;;;;;;42.13;23.23;;;4.30;99.90;;;;;;5020392;28;20506;-73
2021/03/05 02:22:53;;;;;;;46.50;23.43;;;4.30;99.90;;;;;;5020726;28;20477;-73
2021/03/05 02:26:02;;;;;;;43.10;21.40;;;4.20;99.90;;;;;;5021956;28;20980;-72
2021/03/05 02:29:02;;;;;;;39.87;21.27;;;4.20;99.90;;;;;;4963192;28;20535;-73
2021/03/05 02:31:47;;;;;;;46.67;22.43;;;4.20;99.90;;;;;;5024045;28;20425;-74
2021/03/05 02:34:20;;;;;;;34.07;19.70;;;4.20;99.90;;;;;;5017340;28;20528;-73
2021/03/05 02:36:52;;;;;;;49.07;22.13;;;4.20;99.90;;;;;;5021087;28;20459;-73
2021/03/05 02:39:37;;;;;;;37.90;21.00;;;4.10;99.90;;;;;;5022258;28;20596;-73
2021/03/05 02:42:07;;;;;;;41.63;22.70;;;4.10;99.90;;;;;;5019901;28;20413;-73
2021/03/05 02:44:38;;;;;;;39.53;20.40;;;4.10;99.90;;;;;;5024189;28;20952;-76
2021/03/05 02:47:06;;;;;;;45.03;22.70;;;4.10;99.90;;;;;;5016944;28;20449;-73
2021/03/05 02:49:34;;;;;;;46.37;23.40;;;4.20;99.90;;;;;;5024379;28;20426;-73
2021/03/05 02:52:05;;;;;;;48.77;22.30;;;4.20;99.90;;;;;;5016332;28;20479;-72
2021/03/05 02:54:34;;;;;;;35.10;20.77;;;4.10;99.90;;;;;;5023997;28;20433;-74
2021/03/05 02:57:00;;;;;;;41.77;20.10;;;4.20;99.90;;;;;;5016237;28;20416;-73
2021/03/05 02:59:27;;;;;;;44.50;21.10;;;4.20;99.90;;;;;;5023595;28;20424;-73
2021/03/05 03:01:54;;;;;;;34.77;20.30;;;4.10;99.90;;;;;;5021078;28;21060;-73
2021/03/05 03:04:20;;;;;;;43.47;21.40;;;4.20;99.90;;;;;;5022160;28;20440;-72
2021/03/05 03:06:48;;;;;;;41.37;20.40;;;4.10;99.90;;;;;;5021553;28;20911;-74
2021/03/05 03:09:14;;;;;;;42.87;21.60;;;4.10;99.90;;;;;;5021147;28;20425;-73
2021/03/05 03:11:43;;;;;;;44.47;20.77;;;4.10;99.90;;;;;;5022317;28;20513;-74
2021/03/05 03:14:10;;;;;;;39.27;20.27;;;4.00;99.90;;;;;;5022657;28;20418;-76
2021/03/05 03:16:38;;;;;;;46.07;21.83;;;4.10;99.90;;;;;;5020337;28;20434;-72
2021/03/05 03:19:08;;;;;;;37.87;20.30;;;4.10;99.90;;;;;;5023158;28;20468;-73
2021/03/05 03:21:35;;;;;;;37.87;19.13;;;4.10;99.90;;;;;;5016585;28;20408;-73
2021/03/05 03:24:00;;;;;;;35.80;19.23;;;4.10;99.90;;;;;;5023085;28;20795;-72
2021/03/05 03:26:26;;;;;;;36.10;18.60;;;4.10;99.90;;;;;;5020446;28;20566;-73
2021/03/05 03:28:52;;;;;;;34.03;18.27;;;4.10;99.90;;;;;;5021916;28;20582;-73
2021/03/05 03:31:17;;;;;;;35.47;19.80;;;4.20;99.90;;;;;;5021676;28;20187;-75
2021/03/05 03:33:43;;;;;;;33.27;21.23;;;4.10;99.90;;;;;;5020694;28;20678;-74
2021/03/05 03:36:09;;;;;;;36.90;21.40;;;4.10;99.90;;;;;;5022329;28;20177;-74
2021/03/05 03:38:36;;;;;;;37.03;19.80;;;4.10;99.90;;;;;;5019645;28;20209;-73
2021/03/05 03:41:03;;;;;;;32.97;19.07;;;4.10;99.90;;;;;;5015784;28;20420;-75
2021/03/05 03:43:28;;;;;;;38.40;20.70;;;4.20;99.90;;;;;;5022681;28;20417;-73
2021/03/05 03:45:54;;;;;;;39.03;21.57;;;4.20;99.90;;;;;;5020344;28;20971;-73
2021/03/05 03:48:20;;;;;;;33.33;20.60;;;4.20;99.90;;;;;;5021601;28;20239;-73
2021/03/05 03:50:58;;;;;;;34.17;19.00;;;4.20;99.90;;;;;;5021339;28;20191;-73
2021/03/05 03:53:26;;;;;;;35.10;19.67;;;4.10;99.90;;;;;;5021871;28;20460;-73
2021/03/05 03:55:53;;;;;;;28.87;18.07;;;4.10;99.90;;;;;;5020343;28;20850;-73
2021/03/05 03:58:24;;;;;;;30.83;19.33;;;4.00;99.90;;;;;;5020905;28;20470;-73
2021/03/05 04:00:52;;;;;;;31.07;18.90;;;4.00;99.90;;;;;;5020943;28;20429;-75
2021/03/05 04:03:19;;;;;;;30.20;18.40;;;4.00;99.90;;;;;;5020842;28;20509;-73
2021/03/05 04:05:46;;;;;;;28.57;18.00;;;4.00;99.90;;;;;;5021325;28;20441;-73
2021/03/05 04:08:16;;;;;;;26.90;15.67;;;4.00;99.90;;;;;;5020138;28;20592;-73
2021/03/05 04:10:42;;;;;;;26.07;16.23;;;3.90;99.90;;;;;;5021876;28;20422;-73
2021/03/05 04:13:10;;;;;;;28.83;16.97;;;3.90;99.90;;;;;;5019334;28;20419;-73
2021/03/05 04:15:37;;;;;;;28.43;16.17;;;3.90;99.90;;;;;;5022626;28;20198;-73
2021/03/05 04:18:03;;;;;;;31.60;17.30;;;3.90;99.90;;;;;;5019046;28;20468;-73
2021/03/05 04:20:30;;;;;;;20.07;14.33;;;3.80;99.90;;;;;;5022654;28;20429;-73
2021/03/05 04:22:57;;;;;;;29.90;17.90;;;3.90;99.90;;;;;;5019250;28;20431;-72
2021/03/05 04:25:22;;;;;;;25.70;17.03;;;3.80;99.90;;;;;;5021757;28;21078;-73
2021/03/05 04:27:48;;;;;;;28.10;17.00;;;3.90;99.90;;;;;;5020434;28;20413;-73
2021/03/05 04:30:14;;;;;;;25.03;15.87;;;3.90;99.90;;;;;;5019356;28;20186;-73
2021/03/05 04:32:41;;;;;;;24.73;15.93;;;3.90;99.90;;;;;;5020389;28;20182;-75
2021/03/05 04:35:09;;;;;;;29.03;16.73;;;3.80;99.90;;;;;;5019478;28;20467;-72
2021/03/05 04:37:36;;;;;;;23.90;14.90;;;3.80;99.90;;;;;;5022500;28;20460;-74
2021/03/05 04:40:02;;;;;;;25.30;15.30;;;3.70;99.90;;;;;;5019242;28;20422;-74
2021/03/05 04:42:27;;;;;;;23.73;15.30;;;3.80;99.90;;;;;;5021981;28;20413;-74
2021/03/05 04:44:53;;;;;;;25.77;16.43;;;3.80;99.90;;;;;;5018330;28;20841;-73
2021/03/05 04:47:18;;;;;;;24.30;16.10;;;3.80;99.90;;;;;;5022474;28;20594;-72
2021/03/05 04:49:44;;;;;;;25.83;16.27;;;3.70;99.90;;;;;;5024118;28;20180;-75
2021/03/05 04:52:09;;;;;;;26.90;15.10;;;3.80;99.90;;;;;;5025268;28;20179;-72
2021/03/05 04:54:35;;;;;;;24.10;15.30;;;3.70;99.90;;;;;;5022837;28;20205;-75
2021/03/05 04:57:01;;;;;;;24.90;14.80;;;3.70;99.90;;;;;;5026038;28;20183;-74
2021/03/05 04:59:26;;;;;;;29.03;16.70;;;3.70;99.90;;;;;;5021587;28;20203;-73
2021/03/05 05:01:52;;;;;;;26.57;16.83;;;3.70;99.90;;;;;;5023435;28;20181;-73
2021/03/05 05:04:17;;;;;;;22.33;15.87;;;3.70;99.90;;;;;;5024077;28;20203;-75
2021/03/05 05:06:43;;;;;;;29.47;16.60;;;3.70;99.90;;;;;;5024674;28;20187;-73
2021/03/05 05:09:08;;;;;;;23.47;15.20;;;3.70;99.90;;;;;;5022885;28;20184;-73
2021/03/05 05:11:34;;;;;;;23.20;15.43;;;3.70;99.90;;;;;;5025830;28;20309;-73
2021/03/05 05:13:59;;;;;;;23.43;14.57;;;3.70;99.90;;;;;;5021843;28;20481;-75
2021/03/05 05:16:26;;;;;;;29.30;17.60;;;3.70;99.90;;;;;;5025156;28;20246;-73
2021/03/05 05:18:52;;;;;;;23.17;14.90;;;3.70;99.90;;;;;;5023050;28;20290;-72
2021/03/05 05:21:17;;;;;;;27.00;15.90;;;3.70;99.90;;;;;;5024171;28;20502;-72
2021/03/05 05:23:43;;;;;;;24.77;15.50;;;3.60;99.90;;;;;;5024070;28;20187;-73
2021/03/05 05:26:08;;;;;;;25.53;15.70;;;3.60;99.90;;;;;;5022982;28;20172;-74
2021/03/05 05:28:34;;;;;;;25.73;15.90;;;3.60;99.90;;;;;;5025518;28;20682;-73
2021/03/05 05:30:59;;;;;;;24.90;14.67;;;3.70;99.90;;;;;;5022155;28;20215;-73
2021/03/05 05:33:25;;;;;;;24.07;14.33;;;3.70;99.90;;;;;;5024486;28;20605;-75
2021/03/05 05:35:50;;;;;;;26.30;16.30;;;3.70;99.90;;;;;;5023048;28;20196;-73
2021/03/05 05:38:16;;;;;;;21.53;13.30;;;3.60;99.90;;;;;;5021814;28;20281;-73
2021/03/05 05:40:41;;;;;;;26.60;15.37;;;3.70;99.90;;;;;;5022727;28;20184;-74
2021/03/05 05:43:07;;;;;;;23.63;15.30;;;3.70;99.90;;;;;;5024772;28;20651;-74
2021/03/05 05:45:32;;;;;;;23.80;13.13;;;3.70;99.90;;;;;;5020871;28;20231;-73
2021/03/05 05:48:00;;;;;;;28.23;14.50;;;3.70;99.90;;;;;;5023206;28;20190;-72
2021/03/05 05:50:27;;;;;;;22.93;14.37;;;3.70;99.90;;;;;;5022416;28;20198;-71
2021/03/05 05:52:56;;;;;;;22.07;12.77;;;3.80;99.90;;;;;;5023665;28;20610;-71
2021/03/05 05:55:23;;;;;;;22.80;14.53;;;3.80;99.90;;;;;;5022632;28;20468;-71
2021/03/05 05:57:49;;;;;;;25.43;13.50;;;3.80;99.90;;;;;;5020878;28;20463;-70
2021/03/05 06:00:15;;;;;;;25.97;14.60;;;3.80;99.90;;;;;;5026585;28;20771;-71
2021/03/05 06:02:44;;;;;;;20.73;12.97;;;3.80;99.90;;;;;;5030124;28;20661;-70
2021/03/05 06:05:13;;;;;;;30.20;15.10;;;3.80;99.90;;;;;;5021105;28;21021;-71
2021/03/05 06:07:41;;;;;;;24.93;14.60;;;3.70;99.90;;;;;;5027114;28;20843;-70
2021/03/05 06:10:08;;;;;;;22.70;13.40;;;3.80;99.90;;;;;;5021552;28;20467;-70
2021/03/05 06:12:33;;;;;;;24.20;15.50;;;3.80;99.90;;;;;;5024364;28;20508;-72
2021/03/05 06:14:59;;;;;;;25.90;14.20;;;3.70;99.90;;;;;;5021300;28;20525;-71
2021/03/05 06:17:40;;;;;;;25.57;15.03;;;3.70;99.90;;;;;;5023458;28;20191;-71
2021/03/05 06:20:07;;;;;;;25.17;14.60;;;3.80;99.90;;;;;;5018134;28;20175;-71
2021/03/05 06:22:32;;;;;;;29.50;15.00;;;3.70;99.90;;;;;;5024125;28;20450;-71
2021/03/05 06:24:58;;;;;;;23.80;14.70;;;3.70;99.90;;;;;;5021176;28;20491;-72
2021/03/05 06:27:29;;;;;;;21.20;13.60;;;3.80;99.90;;;;;;5023090;28;20264;-72
2021/03/05 06:29:54;;;;;;;34.30;15.50;;;3.80;99.90;;;;;;5021633;28;20263;-72
2021/03/05 06:32:20;;;;;;;22.40;14.43;;;3.80;99.90;;;;;;5018356;28;20522;-71
2021/03/05 06:34:55;;;;;;;26.00;14.00;;;3.70;99.90;;;;;;5019779;28;20246;-71
2021/03/05 06:37:26;;;;;;;26.27;14.40;;;3.80;99.90;;;;;;5022730;28;20211;-71
2021/03/05 06:40:08;;;;;;;22.93;14.40;;;3.80;99.90;;;;;;5021541;28;20430;-71
2021/03/05 06:42:55;;;;;;;27.43;16.27;;;3.80;99.90;;;;;;5020339;28;20540;-72
2021/03/05 06:45:34;;;;;;;25.27;14.17;;;3.70;99.90;;;;;;5018167;28;21210;-69
2021/03/05 06:48:04;;;;;;;22.13;13.47;;;3.80;99.90;;;;;;5020438;28;20426;-70
2021/03/05 06:50:32;;;;;;;27.57;14.27;;;3.80;99.90;;;;;;5026563;28;20426;-70
2021/03/05 06:52:57;;;;;;;24.40;13.67;;;3.80;99.90;;;;;;5020264;28;20448;-69
2021/03/05 06:55:23;;;;;;;27.00;14.60;;;3.70;99.90;;;;;;5023131;28;20455;-71
2021/03/05 06:57:53;;;;;;;26.30;13.60;;;3.70;99.90;;;;;;5004765;28;20237;-71
2021/03/05 07:00:20;;;;;;;22.03;13.73;;;3.80;99.90;;;;;;5024529;28;20179;-70
2021/03/05 07:02:46;;;;;;;30.07;14.77;;;3.70;99.90;;;;;;5004085;28;20506;-69
2021/03/05 07:05:12;;;;;;;23.63;13.77;;;3.80;99.90;;;;;;5005601;28;21063;-70
2021/03/05 07:07:42;;;;;;;21.63;13.83;;;3.80;99.90;;;;;;5019144;28;20675;-71
2021/03/05 07:10:08;;;;;;;24.03;14.33;;;3.80;99.90;;;;;;5019969;28;20179;-71
2021/03/05 07:12:34;;;;;;;28.57;14.90;;;3.80;99.90;;;;;;5022802;28;20418;-69
2021/03/05 07:14:59;;;;;;;23.53;13.40;;;3.80;99.90;;;;;;5023407;28;20435;-71
2021/03/05 07:17:26;;;;;;;26.93;15.63;;;3.80;99.90;;;;;;5019691;28;20243;-70
2021/03/05 07:19:52;;;;;;;27.93;14.43;;;3.80;99.90;;;;;;5021499;28;20186;-70
2021/03/05 07:22:21;;;;;;;23.97;14.53;;;3.90;99.90;;;;;;5017764;28;20431;-71
2021/03/05 07:24:50;;;;;;;25.63;12.40;;;3.90;99.90;;;;;;5011638;28;20591;-70
2021/03/05 07:27:16;;;;;;;27.10;14.47;;;4.00;99.90;;;;;;5013116;28;20431;-69
2021/03/05 07:29:44;;;;;;;23.73;14.43;;;4.00;99.90;;;;;;5015363;28;20402;-70
2021/03/05 07:32:26;;;;;;;21.97;13.97;;;4.00;99.90;;;;;;5011608;28;20477;-71
2021/03/05 07:35:05;;;;;;;22.00;13.80;;;4.00;99.90;;;;;;5009979;28;20519;-71
2021/03/05 07:37:37;;;;;;;20.87;12.00;;;4.00;99.90;;;;;;5017127;28;21011;-71
2021/03/05 07:40:14;;;;;;;23.10;14.23;;;4.00;99.90;;;;;;5019026;28;20474;-71
2021/03/05 07:42:40;;;;;;;26.23;13.80;;;4.10;99.90;;;;;;5017507;28;20783;-70
2021/03/05 07:45:10;;;;;;;29.30;15.67;;;4.10;99.90;;;;;;5022693;28;20485;-70
2021/03/05 07:47:37;;;;;;;24.90;13.93;;;4.10;99.90;;;;;;5016651;28;20806;-71
2021/03/05 07:50:06;;;;;;;23.80;14.00;;;4.10;99.90;;;;;;5020324;28;20490;-70
2021/03/05 07:52:32;;;;;;;25.17;13.53;;;4.10;99.90;;;;;;5009386;28;20436;-70
2021/03/05 07:54:58;;;;;;;22.77;12.97;;;4.10;99.90;;;;;;5019496;28;20485;-71
2021/03/05 07:57:23;;;;;;;22.87;13.40;;;4.20;99.90;;;;;;5021633;28;20450;-70
2021/03/05 07:59:50;;;;;;;27.63;13.80;;;4.20;99.90;;;;;;5018099;28;20180;-71
2021/03/05 08:02:22;;;;;;;24.40;13.57;;;4.20;99.90;;;;;;5020637;28;20184;-70
2021/03/05 08:04:56;;;;;;;23.80;13.40;;;4.20;99.90;;;;;;5020555;28;20475;-70
2021/03/05 08:07:22;;;;;;;22.97;13.23;;;4.30;99.90;;;;;;5020936;28;20932;-70
2021/03/05 08:09:48;;;;;;;22.27;13.33;;;4.40;99.90;;;;;;5020946;28;20423;-71
2021/03/05 08:12:27;;;;;;;20.20;12.00;;;4.40;99.90;;;;;;5019444;28;20427;-70
2021/03/05 08:15:13;;;;;;;21.90;12.33;;;4.40;99.90;;;;;;5020531;28;20196;-70
2021/03/05 08:17:41;;;;;;;24.27;13.33;;;4.30;99.90;;;;;;5018603;28;20558;-71
2021/03/05 08:20:09;;;;;;;20.30;11.30;;;4.30;99.90;;;;;;5008779;28;20438;-70
2021/03/05 08:22:58;;;;;;;19.67;11.73;;;4.30;99.90;;;;;;5021690;28;20434;-70
2021/03/05 08:25:28;;;;;;;18.00;11.33;;;4.40;99.90;;;;;;5016123;28;20883;-70
2021/03/05 08:27:55;;;;;;;21.40;12.13;;;4.30;99.90;;;;;;5023466;28;20427;-70
2021/03/05 08:30:41;;;;;;;20.77;12.03;;;4.30;99.90;;;;;;5023853;28;20432;-70
2021/03/05 08:33:08;;;;;;;19.63;11.30;;;4.20;99.90;;;;;;5018382;28;20435;-70
2021/03/05 08:35:37;;;;;;;23.30;12.43;;;4.20;99.90;;;;;;5022580;28;20447;-70
2021/03/05 08:38:15;;;;;;;25.37;12.53;;;4.20;99.90;;;;;;5015262;28;20458;-70
2021/03/05 08:40:43;;;;;;;25.70;12.90;;;4.20;99.90;;;;;;5022913;28;20421;-70
2021/03/05 08:43:09;;;;;;;22.03;12.27;;;4.20;99.90;;;;;;5014873;28;20442;-70
2021/03/05 08:45:49;;;;;;;18.60;11.33;;;4.20;99.90;;;;;;5026036;28;20528;-72
2021/03/05 08:48:39;;;;;;;24.67;12.80;;;4.20;99.90;;;;;;5017299;28;20185;-71
2021/03/05 08:51:13;;;;;;;22.93;11.00;;;4.20;99.90;;;;;;5020481;28;20418;-71
2021/03/05 08:53:41;;;;;;;26.20;13.40;;;4.20;99.90;;;;;;5022607;28;20432;-71
2021/03/05 08:56:09;;;;;;;24.87;13.47;;;4.20;99.90;;;;;;5018475;28;20438;-73
2021/03/05 08:58:34;;;;;;;19.37;12.13;;;4.20;99.90;;;;;;5019013;28;20833;-71
2021/03/05 09:01:00;;;;;;;17.60;11.07;;;4.30;99.90;;;;;;5025540;28;20428;-70
2021/03/05 09:03:26;;;;;;;22.03;12.40;;;4.30;99.90;;;;;;5024115;28;20192;-71
2021/03/05 09:05:52;;;;;;;18.07;11.43;;;4.30;99.90;;;;;;5023416;28;20193;-71
2021/03/05 09:08:25;;;;;;;19.00;11.80;;;4.30;99.90;;;;;;5023640;28;20183;-71
2021/03/05 09:11:01;;;;;;;21.20;12.90;;;4.40;99.90;;;;;;5023633;28;20805;-71
2021/03/05 09:13:31;;;;;;;26.73;12.83;;;4.40;99.90;;;;;;5021280;28;20968;-72
2021/03/05 09:16:02;;;;;;;16.40;10.97;;;4.50;99.90;;;;;;5019149;28;20424;-70
2021/03/05 09:18:29;;;;;;;20.33;11.70;;;4.40;99.90;;;;;;5024761;28;20465;-70
2021/03/05 09:21:03;;;;;;;18.00;11.17;;;4.50;99.90;;;;;;5023033;28;20424;-71
2021/03/05 09:23:36;;;;;;;21.90;12.17;;;4.60;99.90;;;;;;5024914;28;20511;-71
2021/03/05 09:26:09;;;;;;;14.27;9.20;;;4.60;99.90;;;;;;5018448;28;20491;-71
2021/03/05 09:28:46;;;;;;;17.30;10.10;;;4.60;99.90;;;;;;5018469;28;20429;-71
2021/03/05 09:31:23;;;;;;;18.47;11.47;;;4.60;99.90;;;;;;5019414;28;20435;-71
2021/03/05 09:33:48;;;;;;;21.33;11.17;;;4.70;99.90;;;;;;5021241;28;20944;-72
2021/03/05 09:36:16;;;;;;;21.77;11.80;;;4.70;99.90;;;;;;5022811;28;20428;-70
2021/03/05 09:38:57;;;;;;;19.33;10.03;;;4.70;99.90;;;;;;5023810;28;20578;-71
2021/03/05 09:41:24;;;;;;;14.20;8.40;;;4.70;99.90;;;;;;5024087;28;20429;-71
2021/03/05 09:44:02;;;;;;;20.00;10.53;;;4.80;99.90;;;;;;5022500;28;20431;-70
2021/03/05 09:46:40;;;;;;;16.30;10.23;;;4.80;99.90;;;;;;5024736;28;20424;-72
2021/03/05 09:49:26;;;;;;;18.13;10.70;;;5.00;99.90;;;;;;5015661;28;20559;-71
2021/03/05 09:51:52;;;;;;;15.70;9.63;;;5.00;99.90;;;;;;5017884;28;20465;-70
2021/03/05 09:54:32;;;;;;;17.63;9.43;;;5.00;99.90;;;;;;5020288;28;20443;-71
2021/03/05 09:56:57;;;;;;;20.63;10.77;;;5.10;99.90;;;;;;5020515;28;20425;-70
2021/03/05 09:59:23;;;;;;;17.83;10.20;;;5.00;99.90;;;;;;5021343;28;20475;-71
2021/03/05 10:01:48;;;;;;;17.73;9.90;;;5.00;99.90;;;;;;5023497;28;20180;-70
2021/03/05 10:04:14;;;;;;;18.00;9.47;;;5.10;99.90;;;;;;5020904;28;20213;-71
2021/03/05 10:06:39;;;;;;;17.83;10.13;;;5.10;99.90;;;;;;5023354;28;20185;-71
2021/03/05 10:09:10;;;;;;;18.03;10.47;;;5.10;99.90;;;;;;5020864;28;20212;-70
2021/03/05 10:11:40;;;;;;;18.37;10.53;;;5.10;99.90;;;;;;5018149;28;20665;-72
2021/03/05 10:14:07;;;;;;;14.73;9.67;;;5.10;99.90;;;;;;5020853;28;20443;-70
2021/03/05 10:16:38;;;;;;;18.67;9.87;;;5.10;99.90;;;;;;5017510;28;20454;-70
2021/03/05 10:19:08;;;;;;;12.90;8.60;;;5.20;99.90;;;;;;5020337;28;20465;-71
2021/03/05 10:21:39;;;;;;;13.97;9.03;;;5.20;99.90;;;;;;5015851;28;20478;-71
2021/03/05 10:24:09;;;;;;;22.87;10.60;;;5.40;99.90;;;;;;5015918;28;20555;-72
2021/03/05 10:26:35;;;;;;;14.60;8.57;;;5.40;99.90;;;;;;5018149;28;20454;-71
2021/03/05 10:29:07;;;;;;;18.77;11.37;;;5.50;99.90;;;;;;5020385;28;20450;-71
2021/03/05 10:31:54;;;;;;;20.43;8.67;;;5.60;99.90;;;;;;5013918;28;21222;-71
2021/03/05 10:34:31;;;;;;;20.43;9.33;;;5.60;99.90;;;;;;5019081;28;21054;-70
2021/03/05 10:36:59;;;;;;;15.30;9.03;;;5.70;99.90;;;;;;5019857;28;20818;-72
2021/03/05 10:39:26;;;;;;;15.03;8.73;;;5.70;99.90;;;;;;5022837;28;20475;-71
2021/03/05 10:41:54;;;;;;;16.70;9.87;;;5.70;99.90;;;;;;5021752;28;20989;-70
2021/03/05 10:44:20;;;;;;;21.37;10.70;;;5.60;99.90;;;;;;5021583;28;20450;-71
2021/03/05 10:46:46;;;;;;;15.20;10.30;;;5.70;99.90;;;;;;5022610;28;20421;-73
2021/03/05 10:49:12;;;;;;;18.53;11.17;;;5.50;99.90;;;;;;5021068;28;20423;-70
2021/03/05 10:51:37;;;;;;;19.27;11.67;;;5.60;99.90;;;;;;5022478;28;20746;-71
2021/03/05 10:54:03;;;;;;;21.43;10.83;;;5.60;99.90;;;;;;5018926;28;20545;-70
2021/03/05 10:56:29;;;;;;;17.97;9.83;;;5.70;99.90;;;;;;5021734;28;20249;-70
2021/03/05 10:58:54;;;;;;;20.53;10.67;;;5.70;99.90;;;;;;5011808;28;20223;-70
2021/03/05 11:01:20;;;;;;;18.30;10.90;;;5.70;99.90;;;;;;5014134;28;20241;-69
2021/03/05 11:03:45;;;;;;;20.53;10.20;;;5.50;99.90;;;;;;5018048;28;20197;-70
2021/03/05 11:06:11;;;;;;;21.80;10.13;;;5.50;99.90;;;;;;5012472;28;20293;-71
2021/03/05 11:08:36;;;;;;;22.30;10.27;;;5.50;99.90;;;;;;5012794;28;20191;-70
2021/03/05 11:11:02;;;;;;;15.37;9.63;;;5.50;99.90;;;;;;5014799;28;20184;-70
2021/03/05 11:13:27;;;;;;;21.03;10.63;;;5.50;99.90;;;;;;5013540;28;20190;-69
2021/03/05 11:15:53;;;;;;;17.20;10.77;;;5.60;99.90;;;;;;5013128;28;20251;-69
2021/03/05 11:18:19;;;;;;;17.50;10.90;;;5.50;99.90;;;;;;5008484;28;20688;-70
2021/03/05 11:20:44;;;;;;;22.40;12.10;;;5.60;99.90;;;;;;5012890;28;20660;-71
2021/03/05 11:23:10;;;;;;;15.67;10.73;;;5.70;99.90;;;;;;5015979;28;20178;-71
2021/03/05 11:25:35;;;;;;;15.83;10.00;;;5.80;99.90;;;;;;5015068;28;20207;-70
2021/03/05 11:28:01;;;;;;;18.20;10.53;;;5.80;99.90;;;;;;5015797;28;20327;-70
2021/03/05 11:30:27;;;;;;;19.70;11.57;;;5.80;99.90;;;;;;5014923;28;20557;-71
2021/03/05 11:32:52;;;;;;;18.83;11.63;;;5.80;99.90;;;;;;5015060;28;20186;-72
2021/03/05 11:35:18;;;;;;;17.50;9.03;;;5.70;99.90;;;;;;5010911;28;20259;-70
2021/03/05 11:37:43;;;;;;;20.50;11.60;;;5.80;99.90;;;;;;5011310;28;20260;-70
2021/03/05 11:40:10;;;;;;;20.00;10.67;;;5.80;99.90;;;;;;5011411;28;20262;-71
2021/03/05 11:42:35;;;;;;;19.13;10.97;;;5.70;99.90;;;;;;5012964;28;20188;-72
2021/03/05 11:45:04;;;;;;;14.60;10.00;;;5.60;99.90;;;;;;5016713;28;20452;-69
2021/03/05 11:47:31;;;;;;;19.00;9.77;;;5.60;99.90;;;;;;5015936;28;20590;-70
2021/03/05 11:49:57;;;;;;;17.97;10.47;;;5.60;99.90;;;;;;5028400;28;20416;-70
2021/03/05 11:52:22;;;;;;;18.23;10.73;;;5.60;99.90;;;;;;5022912;28;20794;-71
2021/03/05 11:54:48;;;;;;;16.40;10.30;;;5.50;99.90;;;;;;5024845;28;20212;-71
2021/03/05 11:57:13;;;;;;;18.23;9.63;;;5.40;99.90;;;;;;5025781;28;20705;-70
2021/03/05 11:59:38;;;;;;;20.23;10.97;;;5.50;99.90;;;;;;5022160;28;20206;-71
2021/03/05 12:02:04;;;;;;;17.00;10.47;;;5.50;99.90;;;;;;5019345;28;20185;-71
2021/03/05 12:04:29;;;;;;;21.40;12.43;;;5.60;99.90;;;;;;5027934;28;20242;-70
2021/03/05 12:06:55;;;;;;;19.80;10.83;;;5.60;99.90;;;;;;5023116;28;20207;-71
2021/03/05 12:09:20;;;;;;;19.27;12.00;;;5.70;99.90;;;;;;5021157;28;20196;-70
2021/03/05 12:11:46;;;;;;;17.87;11.13;;;5.80;99.90;;;;;;5021015;28;20174;-71
2021/03/05 12:14:12;;;;;;;14.77;10.07;;;5.80;99.90;;;;;;5019564;28;20597;-71
2021/03/05 12:16:37;;;;;;;19.50;10.20;;;5.80;99.90;;;;;;5018793;28;20208;-71
2021/03/05 12:19:03;;;;;;;21.00;11.17;;;5.80;99.90;;;;;;5014349;28;20222;-68
2021/03/05 12:21:29;;;;;;;21.10;11.33;;;5.90;99.90;;;;;;5018608;28;20182;-71
2021/03/05 12:23:55;;;;;;;23.43;11.37;;;5.90;99.90;;;;;;5019181;28;20435;-70
2021/03/05 12:26:20;;;;;;;19.47;10.80;;;6.00;99.90;;;;;;5016752;28;20210;-70
2021/03/05 12:28:47;;;;;;;20.03;11.63;;;6.10;99.90;;;;;;5017042;28;20182;-71
2021/03/05 12:31:12;;;;;;;18.73;10.90;;;6.00;99.90;;;;;;5013408;28;20188;-70
2021/03/05 12:33:38;;;;;;;20.23;11.10;;;6.00;99.90;;;;;;5020376;28;20444;-70
2021/03/05 12:36:04;;;;;;;23.03;10.77;;;6.00;99.90;;;;;;5018675;28;20702;-70
2021/03/05 12:38:29;;;;;;;17.97;10.00;;;6.00;99.90;;;;;;5014389;28;20241;-71
2021/03/05 12:40:56;;;;;;;20.23;10.07;;;6.10;99.90;;;;;;5019582;28;20173;-71
2021/03/05 12:43:21;;;;;;;17.80;10.10;;;6.20;99.90;;;;;;5020688;28;20241;-70
2021/03/05 12:45:49;;;;;;;18.93;10.43;;;6.20;99.90;;;;;;5019043;28;20441;-72